createdAt,value
2018-07-17T00:00:02.461Z,6.57
2018-07-17T00:02:30.745Z,6.17
2018-07-17T00:04:59.022Z,6.23
2018-07-17T00:07:27.229Z,6.60
2018-07-17T00:09:55.494Z,6.87
2018-07-17T00:12:23.757Z,5.93
2018-07-17T00:14:51.936Z,5.87
2018-07-17T00:17:20.214Z,7.00
2018-07-17T00:19:48.446Z,6.80
2018-07-17T00:22:17.606Z,6.40
2018-07-17T00:24:45.843Z,6.20
2018-07-17T00:27:14.095Z,6.23
2018-07-17T00:29:42.244Z,6.47
2018-07-17T00:32:10.540Z,7.03
2018-07-17T00:34:38.818Z,6.40
2018-07-17T00:37:07.050Z,6.83
2018-07-17T00:39:35.276Z,6.70
2018-07-17T00:42:03.489Z,6.30
2018-07-17T00:44:31.796Z,6.00
2018-07-17T00:47:00.304Z,5.97
2018-07-17T00:49:28.446Z,5.53
2018-07-17T00:51:56.678Z,6.33
2018-07-17T00:54:24.918Z,6.80
2018-07-17T00:56:53.130Z,7.30
2018-07-17T00:59:21.417Z,6.83
2018-07-17T01:01:55.060Z,7.80
2018-07-17T01:04:28.529Z,7.00
2018-07-17T01:07:02.028Z,7.30
2018-07-17T01:09:35.550Z,8.83
2018-07-17T01:12:09.329Z,9.17
2018-07-17T01:14:58.677Z,7.03
2018-07-17T01:17:27.450Z,7.07
2018-07-17T01:19:55.594Z,8.27
2018-07-17T01:22:24.013Z,9.37
2018-07-17T01:24:53.273Z,9.43
2018-07-17T01:27:21.402Z,7.40
2018-07-17T01:29:50.094Z,7.33
2018-07-17T01:32:18.291Z,7.50
2018-07-17T01:34:46.595Z,8.87
2018-07-17T01:37:14.885Z,7.67
2018-07-17T01:39:43.147Z,7.80
2018-07-17T01:42:11.293Z,8.17
2018-07-17T01:44:39.668Z,7.80
2018-07-17T01:47:07.839Z,7.83
2018-07-17T01:49:36.105Z,6.80
2018-07-17T01:52:04.291Z,7.03
2018-07-17T01:54:32.605Z,7.43
2018-07-17T01:57:00.781Z,9.00
2018-07-17T01:59:28.910Z,8.43
2018-07-17T02:01:57.098Z,12.77
2018-07-17T02:04:25.371Z,8.47
2018-07-17T02:06:53.625Z,10.20
2018-07-17T02:09:21.861Z,8.00
2018-07-17T02:11:50.303Z,13.57
2018-07-17T02:14:18.564Z,8.50
2018-07-17T02:16:46.813Z,7.90
2018-07-17T02:19:15.033Z,8.50
2018-07-17T02:21:43.324Z,8.20
2018-07-17T02:24:11.562Z,8.00
2018-07-17T02:26:39.898Z,8.40
2018-07-17T02:29:08.115Z,8.20
2018-07-17T02:31:36.271Z,8.73
2018-07-17T02:34:04.520Z,13.47
2018-07-17T02:36:32.996Z,12.87
2018-07-17T02:39:01.242Z,10.27
2018-07-17T02:41:29.417Z,10.37
2018-07-17T02:43:57.531Z,8.97
2018-07-17T02:46:25.773Z,9.20
2018-07-17T02:48:54.001Z,9.43
2018-07-17T02:51:22.268Z,10.13
2018-07-17T02:53:50.427Z,9.00
2018-07-17T02:56:19.819Z,9.93
2018-07-17T02:58:47.995Z,9.60
2018-07-17T03:01:16.273Z,9.00
2018-07-17T03:03:44.490Z,8.77
2018-07-17T03:06:12.695Z,8.83
2018-07-17T03:08:40.981Z,9.23
2018-07-17T03:11:09.191Z,10.43
2018-07-17T03:13:37.453Z,9.60
2018-07-17T03:16:05.751Z,9.37
2018-07-17T03:18:33.941Z,9.70
2018-07-17T03:21:02.186Z,9.03
2018-07-17T03:23:30.434Z,11.53
2018-07-17T03:25:58.711Z,9.00
2018-07-17T03:28:27.178Z,9.93
2018-07-17T03:30:56.475Z,10.50
2018-07-17T03:33:24.635Z,9.30
2018-07-17T03:35:52.809Z,9.03
2018-07-17T03:38:21.012Z,8.77
2018-07-17T03:40:49.234Z,9.43
2018-07-17T03:43:17.469Z,9.17
2018-07-17T03:45:45.637Z,13.70
2018-07-17T03:48:13.860Z,10.90
2018-07-17T03:50:42.078Z,11.17
2018-07-17T03:53:10.652Z,8.90
2018-07-17T03:55:38.770Z,8.87
2018-07-17T03:58:07.231Z,9.70
2018-07-17T04:00:36.190Z,9.27
2018-07-17T04:03:04.398Z,9.60
2018-07-17T04:05:32.582Z,9.30
2018-07-17T04:08:00.743Z,9.90
2018-07-17T04:10:29.056Z,10.07
2018-07-17T04:12:57.384Z,8.50
2018-07-17T04:15:25.572Z,9.83
2018-07-17T04:17:54.026Z,17.50
2018-07-17T04:20:22.212Z,11.60
2018-07-17T04:22:50.413Z,11.43
2018-07-17T04:25:18.664Z,8.80
2018-07-17T04:27:46.920Z,7.97
2018-07-17T04:30:15.133Z,8.03
2018-07-17T04:32:43.354Z,7.73
2018-07-17T04:35:11.638Z,9.17
2018-07-17T04:37:39.854Z,8.57
2018-07-17T04:40:08.078Z,8.27
2018-07-17T04:42:36.446Z,7.00
2018-07-17T04:45:04.822Z,8.30
2018-07-17T04:47:33.078Z,7.97
2018-07-17T04:50:01.340Z,7.90
2018-07-17T04:52:29.545Z,8.20
2018-07-17T04:54:57.663Z,8.13
2018-07-17T04:57:25.837Z,8.30
2018-07-17T04:59:54.081Z,8.17
2018-07-17T05:02:22.428Z,7.80
2018-07-17T05:04:50.620Z,7.77
2018-07-17T05:07:18.972Z,9.80
2018-07-17T05:09:48.392Z,9.50
2018-07-17T05:12:17.649Z,8.23
2018-07-17T05:14:46.359Z,8.33
2018-07-17T05:17:14.486Z,9.33
2018-07-17T05:19:42.868Z,9.00
2018-07-17T05:22:11.376Z,8.47
2018-07-17T05:24:39.525Z,8.73
2018-07-17T05:27:07.687Z,7.90
2018-07-17T05:29:35.919Z,8.43
2018-07-17T05:32:04.151Z,10.33
2018-07-17T05:34:32.399Z,8.20
2018-07-17T05:37:00.643Z,8.30
2018-07-17T05:39:28.951Z,8.23
2018-07-17T05:41:57.215Z,9.20
2018-07-17T05:44:25.396Z,9.20
2018-07-17T05:46:53.779Z,8.03
2018-07-17T05:49:21.967Z,10.23
2018-07-17T05:51:50.143Z,9.80
2018-07-17T05:54:18.580Z,9.23
2018-07-17T05:56:46.739Z,8.43
2018-07-17T05:59:15.394Z,9.23
2018-07-17T06:01:43.618Z,9.77
2018-07-17T06:04:11.791Z,8.83
2018-07-17T06:06:39.947Z,9.07
2018-07-17T06:09:09.177Z,8.67
2018-07-17T06:11:37.445Z,10.83
2018-07-17T06:14:05.882Z,10.73
2018-07-17T06:16:34.533Z,8.40
2018-07-17T06:19:03.339Z,9.17
2018-07-17T06:21:31.999Z,10.23
2018-07-17T06:24:00.282Z,10.47
2018-07-17T06:26:29.344Z,14.10
2018-07-17T06:28:57.622Z,10.60
2018-07-17T06:31:25.843Z,9.20
2018-07-17T06:33:54.082Z,8.05
2018-07-17T06:36:22.288Z,7.22
2018-07-17T06:38:50.599Z,10.68
2018-07-17T06:41:18.754Z,8.53
2018-07-17T06:43:46.992Z,7.60
2018-07-17T06:46:15.313Z,7.25
2018-07-17T06:48:43.558Z,7.78
2018-07-17T06:51:11.801Z,7.87
2018-07-17T06:53:39.992Z,7.75
2018-07-17T06:56:08.387Z,8.60
2018-07-17T06:58:36.736Z,7.80
2018-07-17T07:01:04.955Z,6.72
2018-07-17T07:03:33.239Z,11.90
2018-07-17T07:06:01.523Z,7.65
2018-07-17T07:08:29.832Z,6.58
2018-07-17T07:10:58.043Z,6.33
2018-07-17T07:13:26.372Z,6.42
2018-07-17T07:15:54.561Z,6.08
2018-07-17T07:18:22.724Z,6.22
2018-07-17T07:20:50.933Z,6.65
2018-07-17T07:23:19.200Z,6.50
2018-07-17T07:25:47.451Z,5.92
2018-07-17T07:28:15.698Z,5.30
2018-07-17T07:30:43.971Z,6.95
2018-07-17T07:33:12.797Z,6.35
2018-07-17T07:35:40.973Z,5.40
2018-07-17T07:38:09.187Z,5.50
2018-07-17T07:40:37.349Z,5.80
2018-07-17T07:43:06.056Z,6.92
2018-07-17T07:45:34.991Z,5.60
2018-07-17T07:48:03.868Z,6.12
2018-07-17T07:50:32.058Z,6.00
2018-07-17T07:53:00.173Z,6.83
2018-07-17T07:55:28.393Z,5.85
2018-07-17T07:57:56.534Z,5.30
2018-07-17T08:00:25.101Z,11.12
2018-07-17T08:02:53.629Z,8.88
2018-07-17T08:05:22.383Z,9.23
2018-07-17T08:07:50.629Z,5.62
2018-07-17T08:10:18.860Z,5.42
2018-07-17T08:12:47.028Z,10.78
2018-07-17T08:15:15.323Z,6.40
2018-07-17T08:17:43.902Z,6.67
2018-07-17T08:20:12.179Z,5.20
2018-07-17T08:22:40.396Z,6.85
2018-07-17T08:25:08.616Z,6.60
2018-07-17T08:27:36.974Z,7.37
2018-07-17T08:30:05.281Z,8.90
2018-07-17T08:32:33.519Z,6.10
2018-07-17T08:35:01.734Z,5.33
2018-07-17T08:37:29.963Z,7.40
2018-07-17T08:39:58.398Z,5.20
2018-07-17T08:42:26.632Z,6.40
2018-07-17T08:44:54.846Z,4.75
2018-07-17T08:47:23.088Z,5.25
2018-07-17T08:49:51.734Z,5.67
2018-07-17T08:52:20.152Z,5.10
2018-07-17T08:54:49.012Z,4.08
2018-07-17T08:57:17.223Z,4.33
2018-07-17T08:59:45.553Z,5.00
2018-07-17T09:02:13.733Z,5.35
2018-07-17T09:04:41.974Z,5.42
2018-07-17T09:07:10.243Z,5.17
2018-07-17T09:09:38.515Z,7.05
2018-07-17T09:12:06.802Z,6.50
2018-07-17T09:14:35.146Z,5.53
2018-07-17T09:17:03.409Z,10.03
2018-07-17T09:19:31.700Z,5.35
2018-07-17T09:22:18.627Z,5.10
2018-07-17T09:24:46.912Z,5.17
2018-07-17T09:27:15.090Z,6.10
2018-07-17T09:29:43.261Z,7.72
2018-07-17T09:32:11.493Z,7.12
2018-07-17T09:34:40.638Z,7.90
2018-07-17T09:37:09.097Z,6.40
2018-07-17T09:39:37.361Z,6.90
2018-07-17T09:42:05.950Z,5.55
2018-07-17T09:44:34.186Z,6.35
2018-07-17T09:47:02.932Z,4.72
2018-07-17T09:49:31.184Z,4.85
2018-07-17T09:51:59.424Z,5.33
2018-07-17T09:54:27.766Z,5.50
2018-07-17T09:56:55.922Z,6.08
2018-07-17T09:59:24.217Z,6.65
2018-07-17T10:01:58.264Z,5.90
2018-07-17T10:04:26.536Z,6.25
2018-07-17T10:06:54.711Z,5.72
2018-07-17T10:09:22.964Z,7.12
2018-07-17T10:11:51.236Z,9.08
2018-07-17T10:14:19.466Z,5.67
2018-07-17T10:16:47.696Z,5.75
2018-07-17T10:19:15.937Z,5.03
2018-07-17T10:21:44.209Z,5.65
2018-07-17T10:24:12.454Z,5.40
2018-07-17T10:26:40.781Z,7.65
2018-07-17T10:29:09.184Z,12.80
2018-07-17T10:31:37.407Z,5.40
2018-07-17T10:34:05.740Z,6.00
2018-07-17T10:36:34.042Z,6.12
2018-07-17T10:39:02.339Z,5.78
2018-07-17T10:41:30.543Z,6.40
2018-07-17T10:43:58.827Z,5.47
2018-07-17T10:46:27.112Z,5.30
2018-07-17T10:48:55.388Z,6.67
2018-07-17T10:51:23.588Z,6.05
2018-07-17T10:53:51.999Z,5.65
2018-07-17T10:58:55.414Z,6.17
2018-07-17T11:01:23.752Z,12.28
2018-07-17T11:03:51.976Z,8.85
2018-07-17T11:06:20.143Z,7.12
2018-07-17T11:08:48.343Z,5.83
2018-07-17T11:11:17.328Z,11.10
2018-07-17T11:13:45.557Z,5.30
2018-07-17T11:16:13.790Z,5.78
2018-07-17T11:18:42.619Z,8.55
2018-07-17T11:21:10.939Z,5.37
2018-07-17T11:23:39.158Z,6.35
2018-07-17T11:26:07.408Z,10.68
2018-07-17T11:28:35.669Z,5.50
2018-07-17T11:31:03.901Z,5.90
2018-07-17T11:33:32.097Z,8.30
2018-07-17T11:36:00.336Z,8.15
2018-07-17T11:38:28.798Z,6.05
2018-07-17T11:40:56.990Z,5.15
2018-07-17T11:43:25.206Z,5.60
2018-07-17T11:45:53.542Z,8.78
2018-07-17T11:48:28.299Z,5.92
2018-07-17T11:50:56.570Z,5.37
2018-07-17T11:53:24.896Z,5.72
2018-07-17T11:55:53.477Z,7.45
2018-07-17T11:58:21.783Z,6.97
2018-07-17T12:00:50.108Z,6.00
2018-07-17T12:03:18.334Z,5.70
2018-07-17T12:05:46.738Z,5.10
2018-07-17T12:08:15.040Z,5.80
2018-07-17T12:10:43.234Z,5.28
2018-07-17T12:13:11.406Z,6.08
2018-07-17T12:15:40.409Z,5.80
2018-07-17T12:18:08.577Z,5.97
2018-07-17T12:20:36.979Z,7.60
2018-07-17T12:23:05.202Z,6.10
2018-07-17T12:25:33.515Z,5.42
2018-07-17T12:28:01.760Z,5.22
2018-07-17T12:30:30.560Z,8.05
2018-07-17T12:32:59.640Z,5.83
2018-07-17T12:35:27.874Z,5.58
2018-07-17T12:37:56.149Z,5.12
2018-07-17T12:40:24.395Z,4.92
2018-07-17T12:42:52.661Z,5.95
2018-07-17T12:45:20.917Z,4.97
2018-07-17T12:47:49.125Z,5.70
2018-07-17T12:50:17.550Z,5.25
2018-07-17T12:52:45.713Z,6.05
2018-07-17T12:55:13.944Z,6.12
2018-07-17T12:57:42.224Z,5.42
2018-07-17T13:00:10.546Z,7.03
2018-07-17T13:02:38.819Z,5.30
2018-07-17T13:05:06.994Z,5.87
2018-07-17T13:07:35.365Z,6.47
2018-07-17T13:10:03.755Z,6.70
2018-07-17T13:12:32.014Z,5.75
2018-07-17T13:15:00.337Z,6.00
2018-07-17T13:17:28.730Z,6.33
2018-07-17T13:19:56.891Z,5.50
2018-07-17T13:22:25.143Z,6.20
2018-07-17T13:24:53.350Z,5.78
2018-07-17T13:27:21.524Z,6.72
2018-07-17T13:29:49.733Z,6.60
2018-07-17T13:32:17.935Z,6.40
2018-07-17T13:34:46.307Z,6.03
2018-07-17T13:37:14.498Z,7.08
2018-07-17T13:39:42.706Z,6.62
2018-07-17T13:42:10.867Z,6.17
2018-07-17T13:44:39.185Z,6.45
2018-07-17T13:47:07.393Z,6.00
2018-07-17T13:49:35.596Z,7.60
2018-07-17T13:52:03.763Z,8.28
2018-07-17T13:54:31.951Z,5.47
2018-07-17T13:57:00.254Z,6.80
2018-07-17T13:59:28.454Z,5.22
2018-07-17T14:01:56.732Z,6.03
2018-07-17T14:04:24.968Z,6.25
2018-07-17T14:06:53.357Z,5.50
2018-07-17T14:09:21.661Z,5.75
2018-07-17T14:11:49.878Z,5.83
2018-07-17T14:14:18.147Z,5.72
2018-07-17T14:16:46.400Z,6.42
2018-07-17T14:19:14.789Z,5.33
2018-07-17T14:21:43.118Z,5.25
2018-07-17T14:24:12.337Z,5.00
2018-07-17T14:26:40.594Z,5.90
2018-07-17T14:29:08.803Z,6.03
2018-07-17T14:31:37.111Z,10.80
2018-07-17T14:34:05.336Z,5.95
2018-07-17T14:36:33.592Z,5.35
2018-07-17T14:39:01.745Z,5.65
2018-07-17T14:41:29.996Z,5.67
2018-07-17T14:43:58.911Z,5.03
2018-07-17T14:46:27.273Z,6.17
2018-07-17T14:48:55.432Z,6.25
2018-07-17T14:51:24.173Z,6.00
2018-07-17T14:53:52.376Z,6.10
2018-07-17T14:56:21.252Z,5.60
2018-07-17T14:58:49.394Z,6.10
2018-07-17T15:01:17.672Z,6.10
2018-07-17T15:03:45.888Z,5.28
2018-07-17T15:06:14.116Z,6.08
2018-07-17T15:08:42.305Z,6.15
2018-07-17T15:11:10.550Z,6.08
2018-07-17T15:13:41.835Z,9.23
2018-07-17T15:16:10.076Z,8.58
2018-07-17T15:18:38.366Z,8.15
2018-07-17T15:21:06.565Z,6.65
2018-07-17T15:23:34.724Z,5.70
2018-07-17T15:26:03.007Z,6.65
2018-07-17T15:28:31.178Z,5.87
2018-07-17T15:30:59.419Z,6.37
2018-07-17T15:33:27.728Z,5.55
2018-07-17T15:35:55.985Z,6.92
2018-07-17T15:38:24.350Z,9.45
2018-07-17T15:40:52.502Z,7.90
2018-07-17T15:43:20.679Z,6.58
2018-07-17T15:45:49.015Z,6.58
2018-07-17T15:48:17.288Z,6.45
2018-07-17T15:50:45.446Z,6.95
2018-07-17T15:53:13.640Z,9.30
2018-07-17T15:55:41.960Z,6.83
2018-07-17T15:58:10.282Z,7.12
2018-07-17T16:00:38.545Z,7.17
2018-07-17T16:03:06.810Z,6.90
2018-07-17T16:05:35.472Z,6.65
2018-07-17T16:08:03.672Z,7.03
2018-07-17T16:10:31.906Z,7.58
2018-07-17T16:13:00.101Z,6.87
2018-07-17T16:15:28.290Z,6.83
2018-07-17T16:17:56.575Z,6.78
2018-07-17T16:20:24.850Z,6.40
2018-07-17T16:22:53.065Z,6.28
2018-07-17T16:25:21.302Z,6.20
2018-07-17T16:27:49.484Z,5.67
2018-07-17T16:30:17.821Z,6.00
2018-07-17T16:32:46.561Z,6.40
2018-07-17T16:35:14.896Z,6.78
2018-07-17T16:37:43.133Z,6.65
2018-07-17T16:40:19.866Z,6.12
2018-07-17T16:42:48.074Z,6.72
2018-07-17T16:45:16.847Z,6.50
2018-07-17T16:47:45.021Z,6.70
2018-07-17T16:50:13.193Z,7.00
2018-07-17T16:52:41.383Z,6.92
2018-07-17T16:55:09.598Z,7.35
2018-07-17T16:57:37.801Z,7.20
2018-07-17T17:00:06.382Z,7.22
2018-07-17T17:02:34.527Z,7.55
2018-07-17T17:05:02.811Z,7.23
2018-07-17T17:07:30.983Z,7.25
2018-07-17T17:09:59.169Z,7.43
2018-07-17T17:12:27.463Z,7.25
2018-07-17T17:14:55.683Z,7.28
2018-07-17T17:17:23.907Z,6.90
2018-07-17T17:19:52.139Z,7.45
2018-07-17T17:22:20.347Z,6.08
2018-07-17T17:24:48.844Z,6.90
2018-07-17T17:27:17.114Z,7.22
2018-07-17T17:29:45.484Z,7.20
2018-07-17T17:32:13.711Z,8.30
2018-07-17T17:34:42.657Z,7.20
2018-07-17T17:37:10.838Z,7.00
2018-07-17T17:39:39.017Z,6.93
2018-07-17T17:42:07.253Z,6.90
2018-07-17T17:44:35.498Z,7.10
2018-07-17T17:47:03.723Z,6.73
2018-07-17T17:49:32.012Z,7.97
2018-07-17T17:52:00.269Z,8.63
2018-07-17T17:54:28.473Z,7.53
2018-07-17T17:56:56.771Z,7.47
2018-07-17T17:59:25.024Z,6.30
2018-07-17T18:01:53.223Z,6.90
2018-07-17T18:04:21.406Z,8.83
2018-07-17T18:06:49.611Z,7.20
2018-07-17T18:09:17.826Z,6.83
2018-07-17T18:11:46.135Z,7.73
2018-07-17T18:14:14.381Z,7.70
2018-07-17T18:16:42.539Z,7.47
2018-07-17T18:19:10.782Z,7.60
2018-07-17T18:21:39.041Z,7.80
2018-07-17T18:24:07.323Z,8.27
2018-07-17T18:26:36.295Z,7.23
2018-07-17T18:29:05.572Z,7.87
2018-07-17T18:31:33.907Z,8.07
2018-07-17T18:34:02.183Z,7.63
2018-07-17T18:36:30.817Z,7.57
2018-07-17T18:38:59.009Z,7.60
2018-07-17T18:41:27.397Z,7.53
2018-07-17T18:43:55.554Z,7.47
2018-07-17T18:46:23.753Z,8.10
2018-07-17T18:48:51.945Z,7.33
2018-07-17T18:51:20.145Z,8.87
2018-07-17T18:53:49.246Z,7.63
2018-07-17T18:56:17.464Z,8.30
2018-07-17T18:58:45.715Z,8.03
2018-07-17T19:01:13.898Z,7.67
2018-07-17T19:03:42.055Z,6.83
2018-07-17T19:06:10.473Z,7.20
2018-07-17T19:08:38.984Z,9.57
2018-07-17T19:11:07.285Z,7.40
2018-07-17T19:13:35.463Z,7.73
2018-07-17T19:16:03.728Z,7.80
2018-07-17T19:18:32.116Z,11.60
2018-07-17T19:21:00.685Z,10.80
2018-07-17T19:23:29.518Z,9.03
2018-07-17T19:25:57.728Z,8.23
2018-07-17T19:28:25.945Z,8.43
2018-07-17T19:30:54.085Z,8.63
2018-07-17T19:33:22.348Z,9.13
2018-07-17T19:35:50.614Z,8.93
2018-07-17T19:38:19.014Z,9.17
2018-07-17T19:40:54.592Z,8.43
2018-07-17T19:43:22.948Z,7.13
2018-07-17T19:45:51.378Z,7.60
2018-07-17T19:48:19.747Z,7.47
2018-07-17T19:50:47.975Z,7.63
2018-07-17T19:53:16.219Z,7.90
2018-07-17T19:55:45.277Z,7.17
2018-07-17T19:58:13.555Z,9.33
2018-07-17T20:00:41.847Z,7.90
2018-07-17T20:03:10.127Z,9.73
2018-07-17T20:05:38.340Z,17.17
2018-07-17T20:08:06.889Z,8.33
2018-07-17T20:10:35.205Z,9.20
2018-07-17T20:13:03.436Z,9.10
2018-07-17T20:15:31.654Z,7.50
2018-07-17T20:17:59.895Z,8.27
2018-07-17T20:20:28.143Z,7.60
2018-07-17T20:22:56.368Z,8.50
2018-07-17T20:25:24.656Z,8.13
2018-07-17T20:27:53.109Z,8.50
2018-07-17T20:30:21.338Z,8.27
2018-07-17T20:32:49.691Z,8.80
2018-07-17T20:35:17.880Z,8.13
2018-07-17T20:37:46.102Z,9.93
2018-07-17T20:40:14.386Z,9.00
2018-07-17T20:42:42.629Z,10.13
2018-07-17T20:45:10.825Z,9.37
2018-07-17T20:47:39.083Z,9.90
2018-07-17T20:50:07.320Z,8.20
2018-07-17T20:52:37.185Z,8.17
2018-07-17T20:55:05.495Z,10.03
2018-07-17T20:57:33.826Z,12.50
2018-07-17T21:00:02.030Z,8.10
2018-07-17T21:02:30.218Z,9.40
2018-07-17T21:04:58.420Z,9.40
2018-07-17T21:07:26.588Z,8.67
2018-07-17T21:09:54.790Z,8.80
2018-07-17T21:12:23.058Z,9.47
2018-07-17T21:14:51.262Z,9.13
2018-07-17T21:17:19.582Z,9.03
2018-07-17T21:19:47.779Z,14.40
2018-07-17T21:22:15.980Z,8.77
2018-07-17T21:24:44.254Z,8.70
2018-07-17T21:27:12.469Z,8.57
2018-07-17T21:29:40.673Z,8.70
2018-07-17T21:32:08.894Z,9.27
2018-07-17T21:34:37.179Z,10.00
2018-07-17T21:37:05.427Z,9.43
2018-07-17T21:39:33.602Z,9.80
2018-07-17T21:42:01.846Z,8.90
2018-07-17T21:44:30.075Z,11.97
2018-07-17T21:46:58.300Z,10.57
2018-07-17T21:49:26.553Z,10.07
2018-07-17T21:51:54.823Z,9.33
2018-07-17T21:54:23.108Z,9.30
2018-07-17T21:56:51.334Z,14.07
2018-07-17T21:59:19.536Z,17.17
2018-07-17T22:01:47.991Z,14.97
2018-07-17T22:04:16.221Z,9.13
2018-07-17T22:06:44.488Z,10.07
2018-07-17T22:09:13.743Z,9.60
2018-07-17T22:11:42.996Z,8.90
2018-07-17T22:14:11.553Z,13.57
2018-07-17T22:16:39.826Z,17.33
2018-07-17T22:19:08.113Z,13.33
2018-07-17T22:21:36.317Z,10.70
2018-07-17T22:24:04.565Z,11.70
2018-07-17T22:26:32.722Z,10.03
2018-07-17T22:29:01.803Z,10.17
2018-07-17T22:31:29.979Z,9.53
2018-07-17T22:34:05.064Z,10.13
2018-07-17T22:36:33.313Z,10.43
2018-07-17T22:39:01.482Z,11.03
2018-07-17T22:41:30.050Z,12.43
2018-07-17T22:43:58.426Z,10.83
2018-07-17T22:46:26.867Z,10.30
2018-07-17T22:48:55.029Z,13.70
2018-07-17T22:51:23.329Z,10.83
2018-07-17T22:53:51.591Z,10.03
2018-07-17T22:56:19.897Z,10.27
2018-07-17T22:58:49.209Z,10.83
2018-07-17T23:01:17.534Z,11.10
2018-07-17T23:03:45.716Z,9.73
2018-07-17T23:06:14.133Z,9.90
2018-07-17T23:08:42.441Z,11.13
2018-07-17T23:11:10.653Z,10.20
2018-07-17T23:13:38.827Z,10.03
2018-07-17T23:16:07.073Z,10.03
2018-07-17T23:18:35.315Z,10.17
2018-07-17T23:21:03.479Z,9.80
2018-07-17T23:23:31.737Z,11.37
2018-07-17T23:25:59.909Z,10.43
2018-07-17T23:28:28.127Z,10.10
2018-07-17T23:30:56.411Z,12.13
2018-07-17T23:33:24.638Z,12.03
2018-07-17T23:35:52.790Z,10.70
2018-07-17T23:38:20.995Z,12.80
2018-07-17T23:40:49.193Z,12.33
2018-07-17T23:43:17.465Z,10.17
2018-07-17T23:45:45.674Z,10.93
2018-07-17T23:48:13.991Z,11.30
2018-07-17T23:50:42.244Z,11.00
2018-07-17T23:53:10.433Z,11.23
2018-07-17T23:55:38.693Z,11.17
2018-07-17T23:58:06.916Z,10.80
